Hub


Voltar

 INFORMAÇÕES METEOROLÓGICAS

METAR FOR LSZB


ADDS - METARS form results

(2045 UTC 16 February 2019)
Data provider http://aviationweather.gov/metar/data/
 
METAR text: LSZB 162020Z AUTO VRB01KT CAVOK M00/M01 Q1028
Conditions at: LSZB (BERN/BELP , CH) observed 2020 UTC 16 February 2019
Temperature: 0.0°C (32°F)
Dewpoint: -1.0°C (30°F) [RH = 93%]
Pressure (altimeter): 30.35 inches Hg (1028.0 mb)
Winds: variable direction winds at 1 MPH (1 knots; 0.5 m/s)
Visibility: 6 or more miles (10+ km)
Ceiling: ceiling and visibility are OK
Clouds: unknown
Weather: no significant weather observed at this time

METAR text: LSZB 161950Z AUTO VRB02KT CAVOK M00/M02 Q1028
Conditions at: LSZB (BERN/BELP , CH) observed 1950 UTC 16 February 2019
Temperature: 0.0°C (32°F)
Dewpoint: -2.0°C (28°F) [RH = 86%]
Pressure (altimeter): 30.35 inches Hg (1028.0 mb)
Winds: variable direction winds at 2 MPH (2 knots; 1.0 m/s)
Visibility: 6 or more miles (10+ km)
Ceiling: ceiling and visibility are OK
Clouds: unknown
Weather: no significant weather observed at this time

Forecast for: LSZB (BERN/BELP , CH)
Text: TAF LSZB 161425Z 1615/1624 VRB03KT CAVOK
Forecast period: 1500 UTC 16 February 2019 to 0000 UTC 17 February 2019
Forecast type: FROM: standard forecast or significant change
Winds: variable direction winds at 3 MPH (3 knots; 1.5 m/s)
Visibility: 6 or more miles 10+ km)
Ceiling: unknown
Clouds: missing
Weather: NSW  (no significant weather)


 MAPA DO AEROPORTO


 INFORMAÇÕES DA PISTA

Pista 14 Tamanho da pista 4954 ft Largura da pista 98 ft
Elevação da pista 1668 ft Ranhura da pista 656 ft Proa da pista 140
Pista 32 Tamanho da pista 4954 ft Largura da pista 98 ft
Elevação da pista 1674 ft Ranhura da pista 360 ft Proa da pista 320
Pista 14L Tamanho da pista 2133 ft Largura da pista 98 ft
Elevação da pista 0 ft Ranhura da pista 0 ft Proa da pista 140
Pista 32R Tamanho da pista 2133 ft Largura da pista 98 ft
Elevação da pista 0 ft Ranhura da pista 0 ft Proa da pista 320
Pista 14R Tamanho da pista 2125 ft Largura da pista 98 ft
Elevação da pista 0 ft Ranhura da pista 0 ft Proa da pista 140
Pista 32L Tamanho da pista 2125 ft Largura da pista 98 ft
Elevação da pista 0 ft Ranhura da pista 0 ft Proa da pista 320

 FREQUÊNCIAS DO AEROPORTO

Tipo A/D Nome APP/DEP Frequência 127.325 MHZ
Tipo ATIS Nome ATIS Frequência 125.125 MHZ
Tipo MISC Nome GLIDER Frequência 123.4 MHZ
Tipo OPS Nome ALPAR Frequência 135.75 MHZ
Tipo TWR Nome TWR Frequência 121.025 MHZ

 AUXÍLIOS DE NAVEGAÇÃO PRÓXIMOS AO AEROPORTO

Tipo NDB Nome Bern Frequência 335 KHZ
Tipo NDB Nome Muri Frequência 312 KHZ
Tipo NDB Nome Schupberg Frequência 357 KHZ